Time;durP1;ratioP1;P1;durP2;ratioP2;P2;SDS_P1;SDS_P2;PMS_P1;PMS_P2;Temp;Humidity;BMP_temperature;BMP_pressure;BME280_temperature;BME280_humidity;BME280_pressure;Samples;Min_cycle;Max_cycle;Signal;HPM_P1;HPM_P2
2021/05/06 00:32:07;;;;;;;0.60;0.20;;;;;;;13.14;54.62;98517.55;1764199;79;21052;-55
2021/05/06 00:34:35;;;;;;;4.20;0.30;;;;;;;13.09;54.53;98511.62;1765736;79;21388;-54
2021/05/06 00:37:03;;;;;;;1.15;0.30;;;;;;;13.07;54.44;98513.08;1763211;79;21194;-57
2021/05/06 00:39:41;;;;;;;1.22;0.20;;;;;;;13.05;54.42;98511.47;1762464;79;21209;-52
2021/05/06 00:42:25;;;;;;;1.82;0.30;;;;;;;13.03;54.43;98502.62;1751307;79;21860;-53
2021/05/06 00:58:56;;;;;;;2.95;0.30;;;;;;;12.92;53.66;98492.67;1746479;80;21230;-54
2021/05/06 01:01:36;;;;;;;2.25;0.20;;;;;;;12.90;53.60;98491.92;1740242;80;21213;-54
2021/05/06 01:06:50;;;;;;;2.27;0.65;;;;;;;12.88;53.55;98492.52;1746890;80;21668;-55
2021/05/06 01:09:10;;;;;;;0.93;0.20;;;;;;;12.85;53.53;98480.11;1717141;80;21719;-53
2021/05/06 01:11:42;;;;;;;1.72;0.20;;;;;;;12.83;53.51;98486.63;1745806;80;21214;-56
2021/05/06 01:14:16;;;;;;;2.17;0.28;;;;;;;12.81;53.46;98478.64;1745823;80;21191;-56
2021/05/06 01:17:01;;;;;;;2.45;0.20;;;;;;;12.78;53.34;98484.75;1747460;80;21157;-56
2021/05/06 01:19:29;;;;;;;0.40;0.20;;;;;;;12.77;53.36;98481.20;1746461;80;21123;-54
2021/05/06 01:21:56;;;;;;;0.70;0.20;;;;;;;12.77;53.36;98485.73;1744777;80;21261;-56
2021/05/06 01:24:25;;;;;;;1.23;0.10;;;;;;;12.76;53.24;98485.39;1745466;80;21205;-55
2021/05/06 01:27:14;;;;;;;0.72;0.20;;;;;;;12.73;53.15;98487.83;1747442;80;21236;-56
2021/05/06 01:29:40;;;;;;;4.53;0.30;;;;;;;12.72;53.19;98485.23;1748427;80;28756;-56
2021/05/06 01:34:48;;;;;;;3.77;0.30;;;;;;;12.75;53.12;98478.27;1819648;76;22893;-55
2021/05/06 01:37:20;;;;;;;0.40;0.20;;;;;;;12.70;53.09;98473.20;1767741;77;21597;-56
2021/05/06 01:47:32;;;;;;;0.30;0.30;;;;;;;12.64;53.16;98461.53;1791945;77;21102;-55
2021/05/06 02:00:32;;;;;;;1.20;0.30;;;;;;;12.58;53.46;98449.87;1792371;77;21187;-55
2021/05/06 02:03:07;;;;;;;0.83;0.20;;;;;;;12.57;53.62;98440.53;1794681;77;21203;-55
2021/05/06 02:05:36;;;;;;;1.45;0.20;;;;;;;12.54;53.73;98444.80;1795191;77;21230;-55
2021/05/06 02:08:04;;;;;;;1.67;0.42;;;;;;;12.48;53.79;98441.61;1741033;80;21193;-57
2021/05/06 02:10:33;;;;;;;1.65;0.20;;;;;;;12.45;53.94;98438.27;1756406;79;21190;-56
2021/05/06 02:13:02;;;;;;;2.93;0.30;;;;;;;12.41;54.00;98434.97;1764915;79;21201;-55
2021/05/06 02:15:36;;;;;;;0.30;0.20;;;;;;;12.41;54.14;98431.41;1745083;79;21209;-57
2021/05/06 02:18:00;;;;;;;0.98;0.30;;;;;;;12.38;54.19;98436.55;1792811;77;21404;-56
2021/05/06 02:20:28;;;;;;;0.43;0.20;;;;;;;12.34;54.34;98435.04;1763005;77;21523;-57
2021/05/06 02:22:56;;;;;;;0.40;0.20;;;;;;;12.31;54.46;98441.17;1765556;77;21265;-56
2021/05/06 02:25:23;;;;;;;1.13;0.23;;;;;;;12.28;54.61;98440.91;1792009;77;21205;-56
2021/05/06 02:27:52;;;;;;;0.35;0.17;;;;;;;12.24;54.70;98435.88;1794678;77;21174;-55
2021/05/06 02:30:20;;;;;;;2.03;0.30;;;;;;;12.21;54.87;98445.05;1795300;77;21574;-56
2021/05/06 02:32:47;;;;;;;0.80;0.30;;;;;;;12.16;55.00;98453.99;1794602;77;21805;-56
2021/05/06 02:35:14;;;;;;;1.40;0.30;;;;;;;12.11;55.12;98446.23;1794447;77;21135;-55
2021/05/06 02:37:42;;;;;;;1.57;0.20;;;;;;;12.06;55.27;98452.47;1796113;77;21491;-55
2021/05/06 02:40:10;;;;;;;1.57;0.20;;;;;;;12.01;55.56;98452.42;1796212;77;21100;-55
2021/05/06 02:42:38;;;;;;;0.50;0.20;;;;;;;11.95;55.64;98450.19;1742639;80;21550;-56
2021/05/06 02:45:08;;;;;;;0.70;0.20;;;;;;;11.92;55.83;98443.66;1743652;79;21154;-54
2021/05/06 02:47:35;;;;;;;0.70;0.20;;;;;;;11.90;56.00;98442.94;1737316;79;21140;-57
2021/05/06 02:50:07;;;;;;;0.72;0.20;;;;;;;11.87;56.09;98441.80;1796244;77;21823;-55
2021/05/06 02:55:36;;;;;;;2.73;0.20;;;;;;;11.85;56.44;98435.17;1868977;75;22098;-56
2021/05/06 02:58:05;;;;;;;2.10;0.20;;;;;;;11.79;56.58;98441.03;1835662;76;21150;-57
2021/05/06 03:03:13;;;;;;;0.63;0.30;;;;;;;11.73;56.90;98446.36;1841693;76;21259;-56
2021/05/06 03:05:41;;;;;;;0.33;0.20;;;;;;;11.70;56.99;98459.19;1842430;76;21182;-57
2021/05/06 03:08:25;;;;;;;0.50;0.20;;;;;;;11.69;57.12;98443.50;1802397;78;21169;-56
2021/05/06 03:11:11;;;;;;;0.50;0.20;;;;;;;11.70;57.24;98434.45;1773381;78;20973;-56
2021/05/06 03:24:28;;;;;;;2.10;0.20;;;;;;;11.83;57.53;98447.90;1860195;74;21295;-55
2021/05/06 03:26:55;;;;;;;1.85;0.30;;;;;;;11.85;57.57;98445.95;1864200;74;22107;-57
2021/05/06 03:29:31;;;;;;;0.97;0.47;;;;;;;11.87;57.51;98447.20;1859565;74;21020;-57
2021/05/06 03:32:07;;;;;;;2.53;0.30;;;;;;;11.87;57.55;98453.45;1860988;74;21146;-57
2021/05/06 03:42:50;;;;;;;0.80;0.30;;;;;;;11.84;57.77;98463.11;1841499;74;21537;-57
2021/05/06 04:13:23;;;;;;;0.90;0.30;;;;;;;12.91;56.67;98515.74;1779571;78;21299;-58
2021/05/06 04:18:21;;;;;;;1.22;0.30;;;;;;;13.58;54.76;98518.09;1803591;78;21180;-57
2021/05/06 04:26:23;;;;;;;1.57;0.30;;;;;;;13.48;54.03;98509.84;1805246;78;21174;-57
2021/05/06 04:37:02;;;;;;;0.50;0.30;;;;;;;13.17;54.81;98533.52;1801156;78;21353;-56
2021/05/06 04:39:45;;;;;;;1.77;0.30;;;;;;;13.14;55.07;98522.95;1782845;79;21205;-58
2021/05/06 04:42:34;;;;;;;0.90;0.37;;;;;;;13.14;55.14;98537.81;1779422;78;21463;-55
2021/05/06 05:04:12;;;;;;;0.45;0.33;;;;;;;13.29;55.30;98542.01;1844251;76;22284;-58
2021/05/06 05:25:25;;;;;;;0.60;0.30;;;;;;;13.35;55.50;98571.28;1795738;77;21740;-56
2021/05/06 05:27:47;;;;;;;1.02;0.40;;;;;;;13.34;55.50;98583.55;1793686;77;21429;-58
2021/05/06 05:30:16;;;;;;;2.02;0.30;;;;;;;13.32;55.48;98577.41;1790264;77;21188;-57
2021/05/06 05:32:45;;;;;;;2.80;0.50;;;;;;;13.30;55.58;98575.30;1791146;77;21575;-57
2021/05/06 05:35:22;;;;;;;1.67;0.30;;;;;;;13.30;55.70;98573.95;1792798;77;21440;-57
2021/05/06 05:40:30;;;;;;;2.17;0.40;;;;;;;13.31;55.93;98589.19;1853756;75;27686;-57
2021/05/06 05:45:42;;;;;;;1.22;0.40;;;;;;;13.37;55.90;98579.23;1836664;76;21451;-58
2021/05/06 05:55:47;;;;;;;1.42;0.30;;;;;;;13.40;56.26;98595.23;1769552;79;21167;-58
2021/05/06 05:58:14;;;;;;;3.37;0.33;;;;;;;13.39;56.25;98600.27;1770968;79;21834;-57
2021/05/06 06:00:42;;;;;;;0.90;0.40;;;;;;;13.41;56.50;98604.58;1771724;79;20989;-57
2021/05/06 06:03:09;;;;;;;1.87;0.40;;;;;;;13.41;56.53;98614.52;1769395;79;22127;-58
2021/05/06 06:05:38;;;;;;;8.95;0.40;;;;;;;13.42;56.65;98610.36;1768772;79;21665;-58
2021/05/06 06:08:10;;;;;;;1.72;0.40;;;;;;;13.45;56.78;98619.56;1768886;79;21112;-56
2021/05/06 06:10:38;;;;;;;1.67;0.40;;;;;;;13.45;56.74;98623.61;1798612;77;22536;-57
2021/05/06 06:13:05;;;;;;;2.60;0.47;;;;;;;13.47;56.90;98627.06;1771702;79;21151;-57
2021/05/06 06:18:33;;;;;;;2.25;0.40;;;;;;;13.52;57.07;98628.08;1777239;79;21251;-57
2021/05/06 06:23:31;;;;;;;2.17;0.50;;;;;;;13.69;57.27;98636.22;1844258;74;38754;-58
2021/05/06 06:25:59;;;;;;;2.00;0.60;;;;;;;13.75;57.12;98653.31;1824272;76;21435;-58
2021/05/06 06:28:34;;;;;;;1.50;0.40;;;;;;;13.82;56.93;98651.34;1830016;76;22432;-58
2021/05/06 06:30:57;;;;;;;1.27;0.40;;;;;;;13.81;56.90;98651.47;1825295;76;21193;-58
2021/05/06 06:33:24;;;;;;;2.35;0.40;;;;;;;13.82;57.10;98653.19;1834407;76;21048;-57
2021/05/06 06:35:52;;;;;;;3.83;0.47;;;;;;;13.82;57.03;98654.55;1826269;76;21159;-57
2021/05/06 06:38:19;;;;;;;1.72;0.50;;;;;;;13.81;57.15;98655.52;1831871;76;20969;-58
2021/05/06 06:40:47;;;;;;;2.42;0.50;;;;;;;13.80;57.43;98665.48;1828093;76;21344;-57
2021/05/06 06:43:14;;;;;;;1.67;0.50;;;;;;;13.81;57.62;98659.58;1774819;79;21426;-57
2021/05/06 06:45:42;;;;;;;2.55;0.47;;;;;;;13.80;58.05;98668.18;1744857;80;21214;-57
2021/05/06 06:48:13;;;;;;;2.45;0.50;;;;;;;13.77;58.54;98681.10;1743701;80;21158;-57
2021/05/06 06:51:46;;;;;;;1.27;0.50;;;;;;;13.74;59.50;98700.27;1803541;77;23371;-58
2021/05/06 06:54:13;;;;;;;1.98;0.40;;;;;;;13.62;60.16;98713.73;1800617;78;22112;-56
2021/05/06 06:56:40;;;;;;;0.45;0.37;;;;;;;13.53;60.58;98713.09;1805806;78;22675;-56
2021/05/06 06:59:07;;;;;;;0.62;0.40;;;;;;;13.45;60.71;98706.06;1806007;78;21204;-56
2021/05/06 07:01:36;;;;;;;8.93;0.30;;;;;;;13.42;60.76;98700.91;1804409;78;21182;-57
2021/05/06 07:04:04;;;;;;;3.33;0.40;;;;;;;13.38;60.96;98703.45;1803441;78;20993;-55
2021/05/06 07:06:31;;;;;;;0.53;0.30;;;;;;;13.36;61.08;98713.52;1806341;78;21214;-57
2021/05/06 07:08:59;;;;;;;2.40;0.40;;;;;;;13.35;61.20;98710.47;1802645;78;21786;-56
2021/05/06 07:11:26;;;;;;;0.50;0.35;;;;;;;13.33;61.44;98716.47;1804274;78;21372;-57
2021/05/06 07:13:54;;;;;;;0.50;0.30;;;;;;;13.32;62.00;98721.50;1802295;78;21134;-56
2021/05/06 07:16:21;;;;;;;0.37;0.30;;;;;;;13.28;62.34;98734.86;1806190;78;21818;-55
2021/05/06 07:18:49;;;;;;;0.40;0.20;;;;;;;13.20;62.90;98730.52;1804113;78;21194;-55
2021/05/06 07:21:17;;;;;;;1.67;0.20;;;;;;;13.10;63.78;98739.77;1806455;78;21452;-55
2021/05/06 07:23:44;;;;;;;0.30;0.20;;;;;;;13.07;64.26;98747.25;1803202;78;21147;-54
2021/05/06 07:26:13;;;;;;;0.37;0.10;;;;;;;13.03;64.35;98755.19;1806337;78;21709;-56
2021/05/06 07:28:43;;;;;;;1.30;0.20;;;;;;;13.02;64.54;98759.73;1804767;78;21134;-56
2021/05/06 07:31:13;;;;;;;0.30;0.20;;;;;;;12.99;64.27;98774.84;1806485;78;21702;-54
2021/05/06 07:33:47;;;;;;;0.45;0.25;;;;;;;12.93;64.87;98779.31;1802016;78;21572;-53
2021/05/06 07:36:18;;;;;;;0.50;0.10;;;;;;;12.86;64.90;98778.91;1807061;78;21115;-54
2021/05/06 07:38:47;;;;;;;0.55;0.15;;;;;;;12.81;64.65;98793.24;1748266;80;21608;-53
2021/05/06 07:41:17;;;;;;;0.25;0.15;;;;;;;12.74;64.77;98796.02;1748378;81;21190;-52
2021/05/06 07:43:46;;;;;;;0.30;0.15;;;;;;;12.68;65.10;98802.31;1747748;81;21181;-55
2021/05/06 07:46:15;;;;;;;1.45;0.20;;;;;;;12.62;65.22;98796.02;1748933;81;21229;-53
2021/05/06 07:48:44;;;;;;;0.20;0.15;;;;;;;12.56;65.34;98794.63;1742239;80;21637;-53
2021/05/06 07:51:13;;;;;;;0.20;0.10;;;;;;;12.53;65.38;98800.23;1734988;81;21218;-54
2021/05/06 07:53:50;;;;;;;0.30;0.20;;;;;;;12.54;65.78;98804.67;1732026;80;21527;-54
2021/05/06 07:56:19;;;;;;;2.40;0.45;;;;;;;12.57;66.26;98807.16;1727566;81;21482;-53
2021/05/06 07:58:47;;;;;;;3.52;1.45;;;;;;;12.67;66.42;98806.02;1799032;78;21715;-55
2021/05/06 08:01:14;;;;;;;3.83;1.07;;;;;;;12.78;66.51;98797.98;1800859;78;21118;-54
2021/05/06 08:03:41;;;;;;;0.50;0.20;;;;;;;12.87;66.34;98807.64;1794132;78;21007;-56
2021/05/06 08:06:09;;;;;;;2.17;0.85;;;;;;;13.00;66.25;98803.58;1800075;78;21199;-56
2021/05/06 08:08:37;;;;;;;1.95;0.20;;;;;;;13.10;65.65;98805.95;1796278;78;21165;-55
2021/05/06 08:11:08;;;;;;;0.50;0.20;;;;;;;13.18;64.64;98806.28;1793586;78;22742;-55
2021/05/06 08:13:33;;;;;;;0.20;0.20;;;;;;;13.21;63.94;98799.80;1795956;78;21161;-55
2021/05/06 08:16:01;;;;;;;0.20;0.10;;;;;;;13.21;63.23;98810.61;1798489;78;21179;-56
2021/05/06 08:18:28;;;;;;;2.67;0.20;;;;;;;13.17;63.16;98814.53;1794957;78;21184;-54
2021/05/06 08:20:56;;;;;;;0.10;0.10;;;;;;;13.15;63.00;98820.05;1796631;78;21148;-56
2021/05/06 08:23:23;;;;;;;0.20;0.10;;;;;;;13.12;62.77;98831.52;1795298;78;21211;-55
2021/05/06 08:25:52;;;;;;;0.30;0.15;;;;;;;13.06;62.55;98829.27;1792009;78;21635;-54
2021/05/06 08:28:21;;;;;;;0.30;0.20;;;;;;;13.00;62.61;98836.00;1756807;80;21743;-56
2021/05/06 08:30:49;;;;;;;0.20;0.10;;;;;;;12.98;62.69;98838.42;1793008;78;21185;-56
2021/05/06 08:33:16;;;;;;;0.10;0.10;;;;;;;12.93;62.16;98835.20;1798023;78;21548;-55
2021/05/06 08:35:44;;;;;;;0.72;0.10;;;;;;;12.88;61.66;98843.63;1797323;78;22757;-56
2021/05/06 08:38:11;;;;;;;0.30;0.20;;;;;;;12.87;61.85;98856.26;1762882;80;21121;-55
2021/05/06 08:40:38;;;;;;;0.30;0.10;;;;;;;12.90;62.12;98861.94;1734977;80;21138;-56
2021/05/06 08:43:08;;;;;;;0.17;0.10;;;;;;;12.96;62.14;98866.02;1791346;78;21103;-54
2021/05/06 08:45:42;;;;;;;0.30;0.10;;;;;;;12.99;61.01;98857.71;1791628;78;21174;-56
2021/05/06 08:48:05;;;;;;;0.28;0.10;;;;;;;13.02;60.66;98873.19;1793557;78;22400;-55
2021/05/06 08:50:34;;;;;;;0.30;0.10;;;;;;;13.08;60.66;98871.42;1791571;78;21127;-55
2021/05/06 08:53:02;;;;;;;0.28;0.10;;;;;;;13.16;60.64;98871.77;1796972;78;22091;-56
2021/05/06 08:55:30;;;;;;;0.13;0.10;;;;;;;13.23;59.45;98878.93;1790129;78;21103;-56
2021/05/06 08:57:57;;;;;;;0.20;0.10;;;;;;;13.26;58.65;98874.66;1799344;78;22329;-54
2021/05/06 09:00:27;;;;;;;0.80;0.20;;;;;;;13.29;58.59;98879.82;1797455;78;21365;-56
2021/05/06 09:02:56;;;;;;;1.22;0.10;;;;;;;13.33;58.32;98881.83;1793760;78;21006;-55
2021/05/06 09:05:23;;;;;;;1.75;0.20;;;;;;;13.37;57.67;98882.83;1798222;78;21188;-55
2021/05/06 09:07:51;;;;;;;0.53;0.10;;;;;;;13.42;57.06;98878.45;1800955;78;21422;-55
2021/05/06 09:10:38;;;;;;;1.75;0.20;;;;;;;13.47;56.89;98869.02;1794445;78;21763;-56
2021/05/06 09:13:29;;;;;;;0.40;0.20;;;;;;;13.58;56.63;98882.61;1800037;78;21872;-54
2021/05/06 09:15:56;;;;;;;1.47;0.30;;;;;;;13.69;57.07;98879.12;1763226;79;21207;-54
2021/05/06 09:18:39;;;;;;;2.15;0.40;;;;;;;13.85;56.63;98877.47;1733311;80;21203;-55
2021/05/06 09:21:27;;;;;;;0.35;0.20;;;;;;;13.97;56.82;98884.16;1797280;78;21190;-54
2021/05/06 09:24:20;;;;;;;0.60;0.20;;;;;;;14.14;56.95;98886.93;1793357;78;21566;-55
2021/05/06 09:26:45;;;;;;;2.87;0.13;;;;;;;14.27;55.88;98887.73;1791789;78;21450;-55
2021/05/06 09:29:38;;;;;;;0.10;0.10;;;;;;;14.37;55.06;98881.95;1795223;78;21191;-56
2021/05/06 09:32:19;;;;;;;0.72;0.10;;;;;;;14.47;55.06;98886.69;1797935;78;21179;-56
2021/05/06 09:34:52;;;;;;;1.72;0.20;;;;;;;14.55;54.58;98891.02;1799262;78;21114;-55
2021/05/06 09:37:31;;;;;;;1.52;0.10;;;;;;;14.64;53.28;98899.30;1772556;79;21188;-55
2021/05/06 09:40:02;;;;;;;0.72;0.20;;;;;;;14.68;52.51;98894.52;1799285;78;21211;-54
2021/05/06 09:42:38;;;;;;;0.68;0.20;;;;;;;14.72;51.86;98892.78;1795129;77;21535;-54
2021/05/06 09:45:07;;;;;;;2.05;0.20;;;;;;;14.78;51.29;98898.72;1794053;78;21180;-56
2021/05/06 09:47:36;;;;;;;1.02;0.20;;;;;;;14.84;51.57;98906.35;1793438;78;21124;-55
2021/05/06 09:50:04;;;;;;;0.42;0.20;;;;;;;14.91;50.44;98897.61;1793793;78;21138;-57
2021/05/06 09:52:54;;;;;;;0.68;0.20;;;;;;;14.98;49.71;98907.47;1795689;78;21189;-56
2021/05/06 09:55:22;;;;;;;3.02;0.20;;;;;;;14.99;47.90;98906.00;1792430;78;21585;-55
2021/05/06 09:57:50;;;;;;;0.70;0.20;;;;;;;15.00;47.95;98913.14;1792502;78;21495;-55
2021/05/06 10:00:19;;;;;;;1.55;0.10;;;;;;;15.07;47.88;98905.38;1795521;78;21170;-55
2021/05/06 10:02:46;;;;;;;0.65;0.20;;;;;;;15.17;47.81;98922.64;1799805;78;21088;-56
2021/05/06 10:05:16;;;;;;;3.05;0.20;;;;;;;15.24;46.44;98922.52;1783932;78;21202;-55
2021/05/06 10:07:53;;;;;;;3.40;0.30;;;;;;;15.25;46.24;98928.31;1793731;78;21578;-55
2021/05/06 10:10:23;;;;;;;1.72;0.20;;;;;;;15.23;45.77;98931.63;1798759;78;21183;-57
2021/05/06 10:12:50;;;;;;;0.37;0.20;;;;;;;15.19;45.51;98944.20;1797264;78;21183;-56
2021/05/06 10:15:18;;;;;;;0.20;0.20;;;;;;;15.15;45.95;98930.89;1797243;78;21739;-56
2021/05/06 10:17:47;;;;;;;0.35;0.30;;;;;;;15.15;46.27;98932.73;1794633;78;21442;-55
2021/05/06 10:20:15;;;;;;;0.40;0.20;;;;;;;15.20;46.87;98925.61;1795971;78;21146;-54
2021/05/06 10:22:43;;;;;;;0.45;0.20;;;;;;;15.29;47.16;98935.23;1797331;78;21108;-55
2021/05/06 10:25:11;;;;;;;0.62;0.20;;;;;;;15.40;47.34;98938.41;1793128;78;21167;-56
2021/05/06 10:27:40;;;;;;;4.50;0.30;;;;;;;15.48;46.48;98928.66;1796216;78;21138;-56
2021/05/06 10:30:12;;;;;;;1.47;0.30;;;;;;;15.54;46.07;98927.35;1793968;78;21202;-55
2021/05/06 10:32:39;;;;;;;0.55;0.30;;;;;;;15.59;45.95;98933.74;1791037;78;21206;-55
2021/05/06 10:35:10;;;;;;;1.15;0.30;;;;;;;15.60;45.09;98949.90;1793601;78;21112;-55
2021/05/06 10:37:41;;;;;;;2.55;0.30;;;;;;;15.55;44.67;98945.36;1795205;78;21439;-55
2021/05/06 10:40:25;;;;;;;0.30;0.20;;;;;;;15.49;44.33;98945.30;1798436;78;21183;-56
2021/05/06 10:42:54;;;;;;;0.40;0.20;;;;;;;15.48;44.41;98950.88;1793521;78;26820;-55
2021/05/06 10:45:27;;;;;;;0.65;0.20;;;;;;;15.46;44.06;98952.84;1790240;78;21183;-56
2021/05/06 10:47:55;;;;;;;0.33;0.20;;;;;;;15.43;43.84;98957.15;1798979;78;21179;-56
2021/05/06 10:50:40;;;;;;;1.70;0.20;;;;;;;15.39;43.45;98955.20;1798998;78;21427;-55
2021/05/06 10:53:09;;;;;;;0.30;0.20;;;;;;;15.38;43.49;98954.83;1799121;78;21427;-56
2021/05/06 10:55:50;;;;;;;1.60;0.20;;;;;;;15.41;43.32;98959.11;1795034;78;22230;-56
2021/05/06 10:58:30;;;;;;;2.25;0.20;;;;;;;15.45;43.14;98957.90;1796119;78;21628;-55
2021/05/06 11:01:15;;;;;;;0.75;0.20;;;;;;;15.51;43.05;98950.61;1795123;78;21617;-55
2021/05/06 11:03:43;;;;;;;0.30;0.10;;;;;;;15.58;42.49;98948.29;1792321;78;21155;-56
2021/05/06 11:06:34;;;;;;;1.95;0.20;;;;;;;15.62;41.86;98946.58;1792164;78;21632;-57
2021/05/06 11:09:05;;;;;;;0.28;0.10;;;;;;;15.68;41.79;98937.06;1797122;78;21444;-55
2021/05/06 11:11:32;;;;;;;0.88;0.13;;;;;;;15.80;41.41;98947.79;1792792;78;21465;-54
2021/05/06 11:14:08;;;;;;;0.50;0.50;;;;;;;15.88;40.60;98945.30;1791789;78;21174;-54
2021/05/06 11:16:39;;;;;;;3.50;0.20;;;;;;;15.91;41.01;98946.88;1795321;78;21091;-54
2021/05/06 11:19:08;;;;;;;1.67;0.20;;;;;;;15.98;41.00;98953.55;1790657;78;21171;-54
2021/05/06 11:21:37;;;;;;;0.10;0.10;;;;;;;16.02;40.59;98959.08;1744291;78;21619;-55
2021/05/06 11:24:24;;;;;;;2.25;0.20;;;;;;;16.03;40.53;98958.58;1793127;78;22212;-56
2021/05/06 11:27:10;;;;;;;0.20;0.15;;;;;;;16.04;40.33;98955.75;1792885;78;20977;-55
2021/05/06 11:29:41;;;;;;;0.50;0.20;;;;;;;16.06;39.78;98961.05;1797701;78;21570;-55
2021/05/06 11:32:34;;;;;;;0.70;0.20;;;;;;;16.03;40.30;98965.37;1794932;78;21084;-55
2021/05/06 11:35:03;;;;;;;0.60;0.30;;;;;;;15.99;40.47;98966.10;1794521;78;22013;-55
2021/05/06 11:37:32;;;;;;;0.40;0.20;;;;;;;15.98;40.46;98956.27;1799024;78;21693;-56
2021/05/06 11:40:12;;;;;;;1.12;0.10;;;;;;;16.04;40.68;98961.67;1796283;78;21149;-54
2021/05/06 11:42:40;;;;;;;0.33;0.10;;;;;;;16.11;40.25;98965.09;1791263;78;21668;-54
2021/05/06 11:45:18;;;;;;;0.23;0.10;;;;;;;16.16;40.17;98966.92;1706954;78;21646;-55
2021/05/06 11:47:45;;;;;;;0.50;0.10;;;;;;;16.21;39.34;98958.41;1795162;78;22700;-57
2021/05/06 11:50:25;;;;;;;0.20;0.10;;;;;;;16.30;39.64;98960.36;1762195;80;21242;-55
2021/05/06 11:52:54;;;;;;;0.20;0.05;;;;;;;16.38;39.86;98966.00;1798152;78;21159;-55
2021/05/06 11:55:35;;;;;;;1.40;0.10;;;;;;;16.49;38.92;98956.95;1803398;78;21103;-56
2021/05/06 11:58:03;;;;;;;1.62;0.20;;;;;;;16.55;38.47;98961.86;1798253;78;21080;-55
2021/05/06 12:00:30;;;;;;;0.20;0.10;;;;;;;16.59;38.72;98958.73;1801888;78;21814;-55
2021/05/06 12:03:04;;;;;;;1.55;0.20;;;;;;;16.61;38.66;98965.43;1800034;78;21131;-55
2021/05/06 12:05:55;;;;;;;0.17;0.10;;;;;;;16.64;38.34;98960.61;1803924;78;21084;-56
2021/05/06 12:08:32;;;;;;;0.70;0.30;;;;;;;16.69;38.58;98959.34;1800642;78;21151;-55
2021/05/06 12:11:03;;;;;;;0.20;0.10;;;;;;;16.68;38.34;98969.34;1801126;78;20953;-57
2021/05/06 12:13:35;;;;;;;0.23;0.20;;;;;;;16.70;36.64;98971.94;1801798;78;21216;-55
2021/05/06 12:16:19;;;;;;;0.20;0.20;;;;;;;16.71;37.53;98960.08;1800430;78;21130;-56
2021/05/06 12:19:02;;;;;;;5.17;0.30;;;;;;;16.76;37.01;98966.00;1803042;78;21125;-55
2021/05/06 12:21:48;;;;;;;0.20;0.10;;;;;;;16.77;36.88;98960.90;1802062;78;21143;-57
2021/05/06 12:24:32;;;;;;;0.30;0.30;;;;;;;16.79;37.57;98957.06;1800019;78;21147;-57
2021/05/06 12:27:19;;;;;;;0.68;0.20;;;;;;;16.82;37.00;98961.39;1797348;78;23645;-56
2021/05/06 12:29:48;;;;;;;0.40;0.20;;;;;;;16.85;37.08;98954.30;1801773;78;21199;-56
2021/05/06 12:32:23;;;;;;;1.55;0.30;;;;;;;16.91;37.23;98960.59;1804540;78;21113;-57
2021/05/06 12:34:54;;;;;;;0.57;0.30;;;;;;;16.90;36.84;98946.63;1798590;78;21239;-56
2021/05/06 12:37:23;;;;;;;0.33;0.20;;;;;;;16.87;36.52;98965.42;1800808;78;21187;-56
2021/05/06 12:39:50;;;;;;;0.50;0.30;;;;;;;16.79;36.21;98958.42;1801471;78;21190;-56
2021/05/06 12:42:30;;;;;;;0.33;0.20;;;;;;;16.72;36.71;98947.72;1798159;78;21165;-56
2021/05/06 12:44:57;;;;;;;0.55;0.30;;;;;;;16.77;36.68;98956.83;1733588;80;21184;-57
2021/05/06 12:47:32;;;;;;;0.40;0.28;;;;;;;16.79;36.18;98950.77;1732345;82;22284;-58
2021/05/06 12:50:13;;;;;;;0.40;0.30;;;;;;;16.76;35.92;98954.60;1739934;80;21222;-57
2021/05/06 12:52:45;;;;;;;1.60;0.40;;;;;;;16.64;35.61;98940.23;1750381;81;21412;-55
2021/05/06 12:55:26;;;;;;;0.30;0.30;;;;;;;16.58;35.85;98946.17;1739461;81;21942;-56
2021/05/06 13:00:58;;;;;;;0.33;0.20;;;;;;;16.53;35.87;98943.45;1870684;75;22743;-55
2021/05/06 13:03:33;;;;;;;1.25;0.30;;;;;;;16.49;36.07;98941.52;1843561;76;21569;-54
2021/05/06 13:06:06;;;;;;;0.30;0.20;;;;;;;16.51;35.48;98937.28;1841198;76;21967;-56
2021/05/06 13:08:42;;;;;;;0.35;0.10;;;;;;;16.54;35.08;98935.67;1846265;76;21040;-56
2021/05/06 13:11:15;;;;;;;1.77;0.20;;;;;;;16.59;33.99;98931.56;1846862;75;21136;-56
2021/05/06 13:13:45;;;;;;;0.30;0.20;;;;;;;16.57;33.99;98927.28;1843622;75;21154;-56
2021/05/06 13:16:16;;;;;;;0.20;0.20;;;;;;;16.57;33.99;98927.28;1781756;78;21210;-56
2021/05/06 13:19:05;;;;;;;0.72;0.17;;;;;;;16.58;33.98;98942.09;1785759;79;22334;-56
2021/05/06 13:21:33;;;;;;;1.80;0.20;;;;;;;16.54;34.08;98943.33;1778800;78;21473;-57
2021/05/06 13:24:04;;;;;;;0.68;0.20;;;;;;;16.49;34.37;98933.37;1814893;77;21200;-56
2021/05/06 13:26:36;;;;;;;0.50;0.20;;;;;;;16.50;33.95;98939.66;1809788;78;21159;-55
2021/05/06 13:29:15;;;;;;;0.95;0.20;;;;;;;16.50;33.95;98939.66;1806540;77;21687;-56
2021/05/06 13:31:45;;;;;;;1.00;0.20;;;;;;;16.49;34.41;98944.23;1810266;78;21333;-57
2021/05/06 13:34:23;;;;;;;2.95;0.20;;;;;;;16.51;35.00;98939.51;1804034;77;21198;-58
2021/05/06 13:37:04;;;;;;;0.40;0.10;;;;;;;16.48;34.00;98946.58;1813840;77;21153;-57
2021/05/06 13:39:33;;;;;;;0.85;0.10;;;;;;;16.48;32.34;98934.85;1805424;77;21182;-58
2021/05/06 13:42:01;;;;;;;0.53;0.15;;;;;;;16.48;32.34;98934.85;1753853;80;21166;-57
2021/05/06 13:44:29;;;;;;;1.75;0.10;;;;;;;16.51;32.61;98943.58;1755529;80;21713;-58
2021/05/06 13:47:02;;;;;;;0.17;0.10;;;;;;;16.55;32.29;98940.98;1754306;80;21171;-56
2021/05/06 13:49:31;;;;;;;3.75;0.23;;;;;;;16.58;32.42;98948.88;1720856;80;21189;-57
2021/05/06 13:51:59;;;;;;;0.47;0.20;;;;;;;16.61;32.75;98943.70;1751503;79;21617;-56
2021/05/06 13:54:28;;;;;;;0.68;0.20;;;;;;;16.61;33.11;98951.35;1752468;80;22290;-57
2021/05/06 13:56:57;;;;;;;2.22;0.20;;;;;;;16.59;32.75;98959.23;1749002;79;21556;-56
2021/05/06 13:59:37;;;;;;;0.93;0.20;;;;;;;16.57;32.76;98956.66;1752462;79;21845;-56
2021/05/06 14:02:06;;;;;;;1.17;0.20;;;;;;;16.57;32.52;98958.52;1703083;82;21536;-55
2021/05/06 14:04:34;;;;;;;0.62;0.30;;;;;;;16.57;32.61;98955.80;1703520;82;21214;-57
2021/05/06 14:07:01;;;;;;;0.40;0.20;;;;;;;16.56;32.45;98956.79;1707495;82;21486;-57
2021/05/06 14:09:29;;;;;;;4.70;0.20;;;;;;;16.52;31.86;98959.39;1706287;82;21360;-56
2021/05/06 14:11:56;;;;;;;1.45;0.30;;;;;;;16.48;32.13;98961.52;1701218;82;21219;-57
2021/05/06 14:14:23;;;;;;;1.25;0.53;;;;;;;16.44;32.34;98964.12;1705166;82;21254;-57
2021/05/06 14:16:50;;;;;;;0.45;0.20;;;;;;;16.44;32.22;98961.89;1702763;82;22191;-56
2021/05/06 14:19:19;;;;;;;2.77;0.30;;;;;;;16.44;31.32;98960.53;1706380;81;21191;-56
2021/05/06 14:21:48;;;;;;;3.33;0.20;;;;;;;16.48;31.16;98969.67;1676973;83;21810;-55
2021/05/06 14:24:15;;;;;;;0.47;0.10;;;;;;;16.54;30.60;98966.92;1677693;83;21512;-56
2021/05/06 14:26:47;;;;;;;0.30;0.10;;;;;;;16.56;29.78;98961.73;1686958;83;21031;-56
2021/05/06 14:29:15;;;;;;;0.20;0.10;;;;;;;16.57;29.58;98963.45;1680287;83;21133;-56
2021/05/06 14:31:44;;;;;;;1.95;0.20;;;;;;;16.60;29.19;98975.41;1682104;81;29435;-55
2021/05/06 14:34:12;;;;;;;0.30;0.20;;;;;;;16.61;29.28;98973.09;1652364;85;21535;-57
2021/05/06 14:36:40;;;;;;;0.95;0.10;;;;;;;16.60;28.61;98972.69;1656527;85;21177;-56
2021/05/06 14:39:08;;;;;;;1.85;0.10;;;;;;;16.55;28.69;98974.95;1653649;85;21154;-55
2021/05/06 14:41:39;;;;;;;1.37;0.20;;;;;;;16.53;29.27;98970.63;1660749;84;21590;-56
2021/05/06 14:44:06;;;;;;;0.30;0.20;;;;;;;16.51;29.00;98982.97;1653247;85;21137;-56
2021/05/06 14:46:33;;;;;;;0.40;0.10;;;;;;;16.50;29.03;98978.53;1631223;86;21598;-56
2021/05/06 14:49:03;;;;;;;1.77;0.20;;;;;;;16.47;28.89;98981.52;1677770;83;21664;-56
2021/05/06 14:51:30;;;;;;;0.60;0.20;;;;;;;16.44;29.11;98977.70;1681073;83;21145;-55
2021/05/06 14:53:58;;;;;;;0.30;0.20;;;;;;;16.43;29.33;98975.97;1679990;83;21652;-57
2021/05/06 14:56:26;;;;;;;0.30;0.20;;;;;;;16.45;29.48;98978.56;1653062;85;21134;-57
2021/05/06 14:58:53;;;;;;;1.90;0.20;;;;;;;16.42;29.21;98978.31;1646399;85;21574;-56
2021/05/06 15:01:20;;;;;;;0.30;0.10;;;;;;;16.39;29.64;98985.39;1648149;85;21192;-54
2021/05/06 15:03:48;;;;;;;0.20;0.10;;;;;;;16.35;29.68;98981.68;1651559;85;21167;-55
2021/05/06 15:06:16;;;;;;;1.25;0.20;;;;;;;16.28;29.82;98993.56;1651920;85;21139;-56
2021/05/06 15:08:44;;;;;;;0.65;0.10;;;;;;;16.25;29.36;98991.09;1627862;86;21122;-57
2021/05/06 15:11:12;;;;;;;0.30;0.15;;;;;;;16.23;28.94;98983.09;1652926;85;21221;-55